(°F)
44°
45°
45°
45°
45°
45°
45°
(°F)
32°
33°
33°
33°
33°
33°
34°
SSW
SSW
SSW
SW
SW
SSW
SSW
(mph)
17-26
18-27
18-28
18-30
17-31
16-31
16-29
(in)
0
0
0.1
0
0
0
0
(%)
59
48
62
39
33
27
27

Sun elevation

/ 2.5°
sun-icon
UV 0
10:39
16:37
Waning gibbous moon (209°)
19:38
12:10

METAR for Reykjavik (BIRK)

Time Conditions Temperature/
Dewpoint
Wind Visibility Weather Clouds Pressure Change Raw
MVFR 44.6°F / 39.2°F 160º 14kt >10km Light Drizzle 0.20mm precipitation Vertical Visibility of 0ft.
Overcast 1800ft
1022 - BIRK 201100Z 16014KT 9999 -DZ SCT013 OVC018 07/04 Q1022
MVFR 42.8°F / 39.2°F 170º 17kt >10km in the Vicinity Showers Vertical Visibility of 0ft. 1023 - BIRK 201000Z 17017KT 9999 VCSH OVC020 06/04 Q1023
MVFR 41°F / 35.6°F 130º 7kt >10km - Few Clouds 1800ft
Overcast 2800ft
1024 - BIRK 200900Z 13007KT 9999 FEW018 OVC028 05/02 Q1024
MVFR 39.2°F / 35.6°F 110º 7kt >10km in the Vicinity Showers Vertical Visibility of 0ft.
Broken Clouds 2600ft
1025 - BIRK 200800Z 11007KT 9999 VCSH FEW012 BKN026 04/02 Q1025
MVFR 37.4°F / 33.8°F 100º 8kt >10km Light Drizzle 0.20mm precipitation Vertical Visibility of 0ft.
Overcast 2300ft
1026 - BIRK 200700Z 10008KT 9999 -DZ SCT013 OVC023 03/01 Q1026
MVFR 35.6°F / 32°F 100º 9kt >10km Light Rain 1.00mm precipitation Vertical Visibility of 0ft.
Overcast 2500ft
1027 - BIRK 200600Z 10009KT 9999 -RA SCT014 OVC025 02/00 Q1027
MVFR 35.6°F / 32°F 110º 9kt >10km Light Drizzle 0.20mm precipitation Vertical Visibility of 0ft.
Broken Clouds 2000ft
Overcast 3200ft
1027 - BIRK 200500Z 11009KT 9999 -DZ FEW014 BKN020 OVC032 02/M00 Q1027
VFR 35.6°F / 30.2°F 110º 8kt >10km - Scattered Clouds 1500ft
Overcast 3200ft
1028 - BIRK 200400Z 11008KT 9999 SCT015 OVC032 02/M01 Q1028
VFR 33.8°F / 30.2°F 120º 9kt >10km - Scattered Clouds 1800ft
Broken Clouds 3600ft
1029 - BIRK 200300Z 12009KT 9999 SCT018 BKN036 01/M01 Q1029
VFR 33.8°F / 28.4°F 120º 11kt >10km - Scattered Clouds 1900ft
Broken Clouds 3800ft
1029 - BIRK 200200Z 12011KT 9999 SCT019 BKN038 01/M02 Q1029
VFR 30.2°F / 26.6°F 90º 8kt >10km - Few Clouds 1900ft
Broken Clouds 3700ft
1030 - BIRK 200100Z 09008KT 9999 FEW019 BKN037 M01/M03 Q1030
VFR 30.2°F / 24.8°F 80º 8kt >10km - Few Clouds 2700ft
Broken Clouds 3500ft
1030 - BIRK 200000Z 08008KT 9999 FEW027 BKN035 M01/M04 Q1030
VFR 32°F / 26.6°F 100º 7kt >10km - Few Clouds 2700ft
Scattered Clouds 3800ft
1031 - BIRK 192300Z 10007KT 9999 FEW027 SCT038 M00/M03 Q1031
MVFR 30.2°F / 24.8°F 100º 9kt >10km Light Showers Snow 3.00mm precipitation Vertical Visibility of 0ft. 1031 - BIRK 192200Z 10009KT 9999 -SHSN BKN029 M01/M04 Q1031
VFR 28.4°F / 21.2°F 90º 8kt >10km - Scattered Clouds 3400ft 1032 - BIRK 192100Z 09008KT 9999 SCT034 M02/M06 Q1032
VFR 28.4°F / 21.2°F 90º 7kt >10km - Clouds and Visibility OK 1032 - BIRK 192000Z 09007KT CAVOK M02/M06 Q1032
VFR 28.4°F / 21.2°F 90º 6kt >10km - Clouds and Visibility OK 1032 - BIRK 191900Z 09006KT CAVOK M02/M06 Q1032
VFR 28.4°F / 21.2°F 110º 5kt >10km - Clouds and Visibility OK 1031 - BIRK 191800Z 11005KT CAVOK M02/M06 Q1031
VFR 30.2°F / 23°F 150º 6kt >10km - Few Clouds 3200ft 1031 - BIRK 191700Z 15006KT 9999 FEW032 M01/M05 Q1031
VFR 30.2°F / 23°F 140º 5kt >10km - Few Clouds 3500ft 1031 - BIRK 191600Z 14005KT 9999 FEW035 M01/M05 Q1031
VFR 30.2°F / 23°F variable 2kt >10km - Broken Clouds 3500ft 1031 - BIRK 191500Z VRB02KT 9999 BKN035 M01/M05 Q1031
VFR 28.4°F / 21.2°F 130º 5kt >10km - Scattered Clouds 3500ft 1031 - BIRK 191400Z 13005KT 9999 SCT035 M02/M06 Q1031
VFR 28.4°F / 21.2°F 180º variable 150º to 210º 4kt >10km - Broken Clouds 3500ft 1031 - BIRK 191300Z 18004KT 150V210 9999 BKN035 M02/M06 Q1031
VFR 28.4°F / 19.4°F variable 1kt >10km - Scattered Clouds 3500ft 1030 - BIRK 191200Z VRB01KT 9999 SCT035 M02/M07 Q1030

MVFR

44.6°F / 39.2°F

[More]
Wind 160º 14kt
Visibility >10km
Weather Light Drizzle 0.20mm precipitation
Clouds Vertical Visibility of 0ft.
Overcast 1800ft
Pressure 1022
Change -
Raw BIRK 201100Z 16014KT 9999 -DZ SCT013 OVC018 07/04 Q1022

MVFR

42.8°F / 39.2°F

[More]
Wind 170º 17kt
Visibility >10km
Weather in the Vicinity Showers
Clouds Vertical Visibility of 0ft.
Pressure 1023
Change -
Raw BIRK 201000Z 17017KT 9999 VCSH OVC020 06/04 Q1023

MVFR

41°F / 35.6°F

[More]
Wind 130º 7kt
Visibility >10km
Weather -
Clouds Few Clouds 1800ft
Overcast 2800ft
Pressure 1024
Change -
Raw BIRK 200900Z 13007KT 9999 FEW018 OVC028 05/02 Q1024

MVFR

39.2°F / 35.6°F

[More]
Wind 110º 7kt
Visibility >10km
Weather in the Vicinity Showers
Clouds Vertical Visibility of 0ft.
Broken Clouds 2600ft
Pressure 1025
Change -
Raw BIRK 200800Z 11007KT 9999 VCSH FEW012 BKN026 04/02 Q1025

MVFR

37.4°F / 33.8°F

[More]
Wind 100º 8kt
Visibility >10km
Weather Light Drizzle 0.20mm precipitation
Clouds Vertical Visibility of 0ft.
Overcast 2300ft
Pressure 1026
Change -
Raw BIRK 200700Z 10008KT 9999 -DZ SCT013 OVC023 03/01 Q1026

MVFR

35.6°F / 32°F

[More]
Wind 100º 9kt
Visibility >10km
Weather Light Rain 1.00mm precipitation
Clouds Vertical Visibility of 0ft.
Overcast 2500ft
Pressure 1027
Change -
Raw BIRK 200600Z 10009KT 9999 -RA SCT014 OVC025 02/00 Q1027

MVFR

35.6°F / 32°F

[More]
Wind 110º 9kt
Visibility >10km
Weather Light Drizzle 0.20mm precipitation
Clouds Vertical Visibility of 0ft.
Broken Clouds 2000ft
Overcast 3200ft
Pressure 1027
Change -
Raw BIRK 200500Z 11009KT 9999 -DZ FEW014 BKN020 OVC032 02/M00 Q1027

VFR

35.6°F / 30.2°F

[More]
Wind 110º 8kt
Visibility >10km
Weather -
Clouds Scattered Clouds 1500ft
Overcast 3200ft
Pressure 1028
Change -
Raw BIRK 200400Z 11008KT 9999 SCT015 OVC032 02/M01 Q1028

VFR

33.8°F / 30.2°F

[More]
Wind 120º 9kt
Visibility >10km
Weather -
Clouds Scattered Clouds 1800ft
Broken Clouds 3600ft
Pressure 1029
Change -
Raw BIRK 200300Z 12009KT 9999 SCT018 BKN036 01/M01 Q1029

VFR

33.8°F / 28.4°F

[More]
Wind 120º 11kt
Visibility >10km
Weather -
Clouds Scattered Clouds 1900ft
Broken Clouds 3800ft
Pressure 1029
Change -
Raw BIRK 200200Z 12011KT 9999 SCT019 BKN038 01/M02 Q1029

VFR

30.2°F / 26.6°F

[More]
Wind 90º 8kt
Visibility >10km
Weather -
Clouds Few Clouds 1900ft
Broken Clouds 3700ft
Pressure 1030
Change -
Raw BIRK 200100Z 09008KT 9999 FEW019 BKN037 M01/M03 Q1030

VFR

30.2°F / 24.8°F

[More]
Wind 80º 8kt
Visibility >10km
Weather -
Clouds Few Clouds 2700ft
Broken Clouds 3500ft
Pressure 1030
Change -
Raw BIRK 200000Z 08008KT 9999 FEW027 BKN035 M01/M04 Q1030

VFR

32°F / 26.6°F

[More]
Wind 100º 7kt
Visibility >10km
Weather -
Clouds Few Clouds 2700ft
Scattered Clouds 3800ft
Pressure 1031
Change -
Raw BIRK 192300Z 10007KT 9999 FEW027 SCT038 M00/M03 Q1031

MVFR

30.2°F / 24.8°F

[More]
Wind 100º 9kt
Visibility >10km
Weather Light Showers Snow 3.00mm precipitation
Clouds Vertical Visibility of 0ft.
Pressure 1031
Change -
Raw BIRK 192200Z 10009KT 9999 -SHSN BKN029 M01/M04 Q1031

VFR

28.4°F / 21.2°F

[More]
Wind 90º 8kt
Visibility >10km
Weather -
Clouds Scattered Clouds 3400ft
Pressure 1032
Change -
Raw BIRK 192100Z 09008KT 9999 SCT034 M02/M06 Q1032

VFR

28.4°F / 21.2°F

[More]
Wind 90º 7kt
Visibility >10km
Weather -
Clouds Clouds and Visibility OK
Pressure 1032
Change -
Raw BIRK 192000Z 09007KT CAVOK M02/M06 Q1032

VFR

28.4°F / 21.2°F

[More]
Wind 90º 6kt
Visibility >10km
Weather -
Clouds Clouds and Visibility OK
Pressure 1032
Change -
Raw BIRK 191900Z 09006KT CAVOK M02/M06 Q1032

VFR

28.4°F / 21.2°F

[More]
Wind 110º 5kt
Visibility >10km
Weather -
Clouds Clouds and Visibility OK
Pressure 1031
Change -
Raw BIRK 191800Z 11005KT CAVOK M02/M06 Q1031

VFR

30.2°F / 23°F

[More]
Wind 150º 6kt
Visibility >10km
Weather -
Clouds Few Clouds 3200ft
Pressure 1031
Change -
Raw BIRK 191700Z 15006KT 9999 FEW032 M01/M05 Q1031

VFR

30.2°F / 23°F

[More]
Wind 140º 5kt
Visibility >10km
Weather -
Clouds Few Clouds 3500ft
Pressure 1031
Change -
Raw BIRK 191600Z 14005KT 9999 FEW035 M01/M05 Q1031

VFR

30.2°F / 23°F

[More]
Wind variable 2kt
Visibility >10km
Weather -
Clouds Broken Clouds 3500ft
Pressure 1031
Change -
Raw BIRK 191500Z VRB02KT 9999 BKN035 M01/M05 Q1031

VFR

28.4°F / 21.2°F

[More]
Wind 130º 5kt
Visibility >10km
Weather -
Clouds Scattered Clouds 3500ft
Pressure 1031
Change -
Raw BIRK 191400Z 13005KT 9999 SCT035 M02/M06 Q1031

VFR

28.4°F / 21.2°F

[More]
Wind 180º variable 150º to 210º 4kt
Visibility >10km
Weather -
Clouds Broken Clouds 3500ft
Pressure 1031
Change -
Raw BIRK 191300Z 18004KT 150V210 9999 BKN035 M02/M06 Q1031

VFR

28.4°F / 19.4°F

[More]
Wind variable 1kt
Visibility >10km
Weather -
Clouds Scattered Clouds 3500ft
Pressure 1030
Change -
Raw BIRK 191200Z VRB01KT 9999 SCT035 M02/M07 Q1030

TAF for Reykjavik (BIRK)

From till


Maximum Temperature 8ºC on . Minimum Temperature 5ºC on .
From till Wind 170º 18kt. Gust 28kt. Visibility 10km or more. Light Rain . Scattered Clouds 1500ft. Broken Clouds 2500ft.
Temporarly from till Visibility 3500m. Drizzle Rain . Overcast 800ft.
Becoming from till Wind 180º 27kt. Gust 40kt. Visibility 10km or more. Light Rain . Scattered Clouds 1500ft. Broken Clouds 2500ft.
Becoming from till Wind 220º 30kt. Gust 45kt. Visibility 10km or more. Light Rain . Scattered Clouds 1500ft. Broken Clouds 2500ft.

Raw: TAF BIRK 201036Z 2012/2112 17018G28KT 9999 -RA SCT015 BKN025 TX08/2016Z TN05/2112Z TEMPO 2012/2112 3500 DZRA OVC008 BECMG 2102/2104 18027G40KT BECMG 2106/2108 22030G45KT

Radar and precipitation nowcast for Reykjavik

Drizzle
Light
Moderate
Heavy
Very Heavy
Hail

The location marker is placed on Reykjavik. This animation shows the precipitation radar for the last hour, as well as a 1h forecast. Drizzle or light snow fall might be invisible for the radar. Precipitation intensity is colour coded, ranging from light blue to orange.

Current satellite and rain images for Reykjavik, Iceland

The location marker is placed on Reykjavik. [More]

The real-time satellite image combines visible light during daytime with infrared radiation during nighttime. At night, the image is not dark as infrared radiation can detect temperature differences. Unfortunately, low clouds and fog are difficult to distinguish from ground temperatures and thus can be almost invisible during the night. Meteosat satellite images for Europe are updated in real-time every 5 minutes. GOES-16/GOES-17 (North & South America) and Himawari (Asia) images update every 10 minutes.

Precipitation is estimated from radar and satellites. At night precipitation estimates from satellites are less accurate than during daytime. Orange crosses mark places where lightning was detected (over Europe).

Copyright 2022 EUMETSAT / meteoblue. Lightning data provided by nowcast.